createdAt,value
2017-01-24T00:00:29.233Z,0
2017-01-24T00:01:40.029Z,0
2017-01-24T00:02:50.829Z,0
2017-01-24T00:04:01.633Z,0
2017-01-24T00:05:12.432Z,0
2017-01-24T00:06:23.227Z,0
2017-01-24T00:07:34.024Z,0
2017-01-24T00:08:44.843Z,0
2017-01-24T00:09:55.639Z,0
2017-01-24T00:11:06.433Z,0
2017-01-24T00:12:17.223Z,0
2017-01-24T00:13:28.024Z,0
2017-01-24T00:14:38.830Z,0
2017-01-24T00:15:49.633Z,0
2017-01-24T00:17:00.429Z,0
2017-01-24T00:18:11.220Z,0
2017-01-24T00:19:22.009Z,0
2017-01-24T00:20:33.151Z,0
2017-01-24T00:21:43.957Z,0
2017-01-24T00:22:54.753Z,0
2017-01-24T00:24:05.554Z,0
2017-01-24T00:25:16.366Z,0
2017-01-24T00:26:27.406Z,0
2017-01-24T00:27:38.203Z,0
2017-01-24T00:28:49.006Z,0
2017-01-24T00:29:59.815Z,0
2017-01-24T00:31:10.612Z,0
2017-01-24T00:32:21.731Z,0
2017-01-24T00:33:32.525Z,0
2017-01-24T00:34:43.325Z,0
2017-01-24T00:35:54.118Z,0
2017-01-24T00:37:04.919Z,0
2017-01-24T00:38:15.713Z,0
2017-01-24T00:39:26.521Z,0
2017-01-24T00:40:37.323Z,0
2017-01-24T00:41:48.127Z,0
2017-01-24T00:42:58.924Z,0
2017-01-24T00:44:09.719Z,0
2017-01-24T00:45:20.513Z,0
2017-01-24T00:46:31.303Z,0
2017-01-24T00:47:42.101Z,0
2017-01-24T00:48:52.897Z,0
2017-01-24T00:50:03.692Z,0
2017-01-24T00:51:14.511Z,0
2017-01-24T00:52:25.312Z,0
2017-01-24T00:53:36.140Z,0
2017-01-24T00:54:46.947Z,0
2017-01-24T00:55:58.088Z,0
2017-01-24T00:57:08.886Z,0
2017-01-24T00:58:19.696Z,0
2017-01-24T00:59:30.489Z,0
2017-01-24T01:00:56.059Z,0
2017-01-24T01:02:07.456Z,0
2017-01-24T01:03:18.254Z,0
2017-01-24T01:04:29.052Z,0
2017-01-24T01:05:39.845Z,0
2017-01-24T01:06:50.644Z,0
2017-01-24T01:08:01.450Z,0
2017-01-24T01:09:12.252Z,0
2017-01-24T01:10:23.052Z,0
2017-01-24T01:11:33.868Z,0
2017-01-24T01:12:44.675Z,0
2017-01-24T01:13:55.473Z,0
2017-01-24T01:15:06.274Z,0
2017-01-24T01:16:17.082Z,0
2017-01-24T01:17:27.897Z,0
2017-01-24T01:18:38.724Z,0
2017-01-24T01:19:49.529Z,0
2017-01-24T01:21:00.320Z,0
2017-01-24T01:22:11.127Z,0
2017-01-24T01:23:21.938Z,0
2017-01-24T01:24:32.758Z,0
2017-01-24T01:25:43.562Z,0
2017-01-24T01:26:54.361Z,0
2017-01-24T01:28:05.169Z,0
2017-01-24T01:29:15.989Z,0
2017-01-24T01:30:26.980Z,0
2017-01-24T01:31:37.774Z,0
2017-01-24T01:32:48.615Z,0
2017-01-24T01:33:59.427Z,0
2017-01-24T01:35:10.240Z,0
2017-01-24T01:36:21.049Z,0
2017-01-24T01:37:31.853Z,0
2017-01-24T01:38:42.662Z,0
2017-01-24T01:39:53.474Z,0
2017-01-24T01:41:04.287Z,0
2017-01-24T01:42:15.095Z,0
2017-01-24T01:43:25.903Z,0
2017-01-24T01:44:36.701Z,0
2017-01-24T01:45:47.498Z,0
2017-01-24T01:46:58.286Z,0
2017-01-24T01:48:09.280Z,0
2017-01-24T01:49:20.087Z,0
2017-01-24T01:50:30.879Z,0
2017-01-24T01:51:41.673Z,0
2017-01-24T01:52:52.461Z,0
2017-01-24T01:54:03.606Z,0
2017-01-24T01:55:14.395Z,0
2017-01-24T01:56:25.187Z,0
2017-01-24T01:57:35.979Z,0
2017-01-24T01:58:46.770Z,0
2017-01-24T01:59:57.562Z,0
2017-01-24T02:01:08.355Z,0
2017-01-24T02:02:19.144Z,0
2017-01-24T02:03:29.958Z,0
2017-01-24T02:04:40.753Z,0
2017-01-24T02:05:51.747Z,0
2017-01-24T02:07:02.537Z,0
2017-01-24T02:08:13.330Z,0
2017-01-24T02:09:24.123Z,0
2017-01-24T02:10:34.916Z,0
2017-01-24T02:11:45.735Z,0
2017-01-24T02:12:56.523Z,0
2017-01-24T02:14:07.348Z,0
2017-01-24T02:15:18.145Z,0
2017-01-24T02:16:28.937Z,0
2017-01-24T02:17:54.203Z,0
2017-01-24T02:19:05.025Z,0
2017-01-24T02:20:16.431Z,0
2017-01-24T02:21:41.695Z,0
2017-01-24T02:22:52.493Z,0
2017-01-24T02:24:03.283Z,0
2017-01-24T02:25:14.079Z,0
2017-01-24T02:26:24.874Z,0
2017-01-24T02:27:35.668Z,0
2017-01-24T02:28:46.710Z,0
2017-01-24T02:29:57.498Z,0
2017-01-24T02:31:08.292Z,0
2017-01-24T02:32:19.087Z,0
2017-01-24T02:33:29.879Z,0
2017-01-24T02:34:40.871Z,0
2017-01-24T02:35:51.667Z,0
2017-01-24T02:37:02.463Z,0
2017-01-24T02:39:38.552Z,0
2017-01-24T02:40:49.346Z,0
2017-01-24T02:42:00.137Z,0
2017-01-24T02:43:10.935Z,0
2017-01-24T02:44:21.734Z,0
2017-01-24T02:45:32.885Z,0
2017-01-24T02:46:43.688Z,0
2017-01-24T02:47:54.487Z,0
2017-01-24T02:49:19.765Z,0
2017-01-24T02:50:30.910Z,0
2017-01-24T02:51:41.723Z,0
2017-01-24T02:52:52.528Z,0
2017-01-24T02:54:03.328Z,0
2017-01-24T02:55:14.137Z,0
2017-01-24T02:56:25.197Z,0
2017-01-24T02:57:36.010Z,0
2017-01-24T02:58:46.814Z,0
2017-01-24T02:59:57.625Z,0
2017-01-24T03:01:08.429Z,0
2017-01-24T03:02:19.507Z,0
2017-01-24T03:03:30.318Z,0
2017-01-24T03:04:41.122Z,0
2017-01-24T03:05:51.933Z,0
2017-01-24T03:07:02.744Z,0
2017-01-24T03:08:14.415Z,0
2017-01-24T03:09:25.226Z,0
2017-01-24T03:10:50.504Z,0
2017-01-24T03:12:01.316Z,0
2017-01-24T03:13:12.468Z,0
2017-01-24T03:15:48.547Z,0
2017-01-24T03:16:59.358Z,0
2017-01-24T03:18:10.416Z,0
2017-01-24T03:19:21.259Z,0
2017-01-24T03:20:32.054Z,0
2017-01-24T03:21:42.858Z,0
2017-01-24T03:22:53.692Z,0
2017-01-24T03:24:04.710Z,0
2017-01-24T03:25:29.985Z,0
2017-01-24T03:26:40.787Z,0
2017-01-24T03:27:51.583Z,0
2017-01-24T03:29:02.383Z,0
2017-01-24T03:30:13.189Z,0
2017-01-24T03:31:23.985Z,0
2017-01-24T03:32:49.262Z,0
2017-01-24T03:34:00.319Z,0
2017-01-24T03:35:11.133Z,0
2017-01-24T03:36:21.941Z,0
2017-01-24T03:37:32.749Z,0
2017-01-24T03:38:43.556Z,0
2017-01-24T03:39:54.360Z,0
2017-01-24T03:41:05.167Z,0
2017-01-24T03:42:15.974Z,0
2017-01-24T03:43:26.801Z,0
2017-01-24T03:44:37.613Z,0
2017-01-24T03:45:48.418Z,0
2017-01-24T03:46:59.223Z,0
2017-01-24T03:48:10.033Z,0
2017-01-24T03:49:20.840Z,0
2017-01-24T03:50:31.645Z,0
2017-01-24T03:51:42.799Z,0
2017-01-24T03:52:53.608Z,0
2017-01-24T03:54:04.416Z,0
2017-01-24T03:55:29.692Z,0
2017-01-24T03:56:40.747Z,0
2017-01-24T03:57:51.585Z,0
2017-01-24T03:59:02.392Z,0
2017-01-24T04:00:13.807Z,0
2017-01-24T04:01:24.616Z,0
2017-01-24T04:02:35.625Z,0
2017-01-24T04:03:46.438Z,0
2017-01-24T04:04:57.245Z,0
2017-01-24T04:06:08.039Z,0
2017-01-24T04:07:33.659Z,0
2017-01-24T04:08:44.461Z,0
2017-01-24T04:09:55.265Z,0
2017-01-24T04:11:06.075Z,0
2017-01-24T04:12:16.881Z,0
2017-01-24T04:13:27.936Z,0
2017-01-24T04:14:38.745Z,0
2017-01-24T04:15:49.554Z,0
2017-01-24T04:17:00.361Z,0
2017-01-24T04:18:11.171Z,0
2017-01-24T04:19:22.335Z,0
2017-01-24T04:20:33.142Z,0
2017-01-24T04:21:43.946Z,0
2017-01-24T04:22:54.752Z,0
2017-01-24T04:24:05.556Z,0
2017-01-24T04:25:16.391Z,0
2017-01-24T04:26:27.201Z,0
2017-01-24T04:27:38.008Z,0
2017-01-24T04:28:48.814Z,0
2017-01-24T04:29:59.629Z,0
2017-01-24T04:31:10.789Z,0
2017-01-24T04:32:21.602Z,0
2017-01-24T04:33:32.409Z,0
2017-01-24T04:34:43.220Z,0
2017-01-24T04:36:08.846Z,0
2017-01-24T04:37:19.650Z,0
2017-01-24T04:38:30.458Z,0
2017-01-24T04:39:41.265Z,0
2017-01-24T04:40:52.068Z,0
2017-01-24T04:42:03.225Z,0
2017-01-24T04:43:14.031Z,0
2017-01-24T04:44:24.836Z,0
2017-01-24T04:45:35.657Z,0
2017-01-24T04:46:46.485Z,0
2017-01-24T04:47:57.494Z,0
2017-01-24T04:49:08.301Z,0
2017-01-24T04:50:19.131Z,0
2017-01-24T04:51:29.935Z,0
2017-01-24T04:52:40.747Z,0
2017-01-24T04:53:51.779Z,0
2017-01-24T04:55:02.582Z,0
2017-01-24T04:56:13.390Z,0
2017-01-24T04:57:24.198Z,0
2017-01-24T04:58:35.002Z,0
2017-01-24T04:59:45.809Z,0
2017-01-24T05:00:56.611Z,0
2017-01-24T05:02:07.420Z,0
2017-01-24T05:03:18.228Z,0
2017-01-24T05:04:29.034Z,0
2017-01-24T05:07:05.738Z,0
2017-01-24T05:08:16.551Z,0
2017-01-24T05:09:27.356Z,0
2017-01-24T05:10:38.411Z,0
2017-01-24T05:11:49.218Z,0
2017-01-24T05:13:00.026Z,0
2017-01-24T05:14:10.844Z,0
2017-01-24T05:15:21.669Z,0
2017-01-24T05:16:32.675Z,0
2017-01-24T05:17:43.506Z,0
2017-01-24T05:20:19.592Z,0
2017-01-24T05:21:31.581Z,0
2017-01-24T05:22:42.368Z,0
2017-01-24T05:23:53.153Z,0
2017-01-24T05:25:03.940Z,0
2017-01-24T05:26:14.729Z,0
2017-01-24T05:27:25.878Z,0
2017-01-24T05:28:36.666Z,0
2017-01-24T05:29:47.452Z,0
2017-01-24T05:30:58.240Z,0
2017-01-24T05:32:09.035Z,0
2017-01-24T05:33:20.080Z,0
2017-01-24T05:34:30.870Z,0
2017-01-24T05:35:41.658Z,0
2017-01-24T05:36:52.453Z,0
2017-01-24T05:38:03.265Z,0
2017-01-24T05:39:14.261Z,0
2017-01-24T05:40:25.054Z,0
2017-01-24T05:41:35.846Z,0
2017-01-24T05:42:46.637Z,0
2017-01-24T05:43:57.422Z,0
2017-01-24T05:45:08.208Z,0
2017-01-24T05:46:18.996Z,0
2017-01-24T05:47:44.268Z,0
2017-01-24T05:48:55.068Z,0
2017-01-24T05:50:06.212Z,0
2017-01-24T05:51:17.008Z,0
2017-01-24T05:52:27.798Z,0
2017-01-24T05:53:38.592Z,0
2017-01-24T05:54:49.986Z,0
2017-01-24T05:56:00.781Z,0
2017-01-24T05:57:11.584Z,0
2017-01-24T05:58:22.384Z,0
2017-01-24T05:59:33.180Z,0
2017-01-24T06:00:43.972Z,0
2017-01-24T06:01:55.007Z,0
2017-01-24T06:03:05.803Z,0
2017-01-24T06:04:16.609Z,0
2017-01-24T06:05:27.411Z,0
2017-01-24T06:06:38.241Z,0
2017-01-24T06:07:49.391Z,0
2017-01-24T06:09:00.199Z,0
2017-01-24T06:10:11.608Z,0
2017-01-24T06:11:22.412Z,0
2017-01-24T06:12:33.240Z,0
2017-01-24T06:13:44.391Z,0
2017-01-24T06:14:55.198Z,0
2017-01-24T06:16:06.001Z,0
2017-01-24T06:17:16.812Z,0
2017-01-24T06:18:27.622Z,0
2017-01-24T06:19:38.628Z,0
2017-01-24T06:20:49.437Z,0
2017-01-24T06:22:00.245Z,0
2017-01-24T06:23:11.056Z,0
2017-01-24T06:24:21.865Z,0
2017-01-24T06:25:32.918Z,0
2017-01-24T06:28:09.004Z,0
2017-01-24T06:29:19.816Z,0
2017-01-24T06:30:30.875Z,0
2017-01-24T06:31:41.680Z,0
2017-01-24T06:32:52.481Z,0
2017-01-24T06:34:03.284Z,0
2017-01-24T06:35:14.092Z,0
2017-01-24T06:36:24.902Z,0
2017-01-24T06:37:35.732Z,0
2017-01-24T06:38:46.538Z,0
2017-01-24T06:39:57.343Z,0
2017-01-24T06:41:08.150Z,0
2017-01-24T06:42:19.155Z,0
2017-01-24T06:43:29.959Z,0
2017-01-24T06:44:40.766Z,0
2017-01-24T06:45:51.571Z,0
2017-01-24T06:47:02.994Z,0
2017-01-24T06:48:14.057Z,0
2017-01-24T06:49:24.863Z,0
2017-01-24T06:50:35.669Z,0
2017-01-24T06:51:46.476Z,0
2017-01-24T06:52:57.280Z,0
2017-01-24T06:54:08.438Z,0
2017-01-24T06:55:19.252Z,0
2017-01-24T06:56:30.061Z,0
2017-01-24T06:57:40.868Z,0
2017-01-24T06:58:51.676Z,0
2017-01-24T07:00:02.733Z,0
2017-01-24T07:01:13.543Z,0
2017-01-24T07:02:24.346Z,0
2017-01-24T07:03:35.155Z,0
2017-01-24T07:04:45.960Z,0
2017-01-24T07:05:56.766Z,0
2017-01-24T07:07:07.576Z,0
2017-01-24T07:08:18.380Z,0
2017-01-24T07:09:29.185Z,0
2017-01-24T07:10:39.992Z,0
2017-01-24T07:11:51.047Z,0
2017-01-24T07:13:16.324Z,0
2017-01-24T07:14:42.207Z,0
2017-01-24T07:15:53.013Z,0
2017-01-24T07:17:03.823Z,0
2017-01-24T07:18:15.241Z,0
2017-01-24T07:19:26.049Z,0
2017-01-24T07:20:36.854Z,0
2017-01-24T07:21:47.662Z,0
2017-01-24T07:22:58.465Z,0
2017-01-24T07:24:09.884Z,0
2017-01-24T07:25:20.689Z,0
2017-01-24T07:26:31.499Z,0
2017-01-24T07:27:56.976Z,0
2017-01-24T07:29:07.785Z,0
2017-01-24T07:30:18.594Z,0
2017-01-24T07:31:29.400Z,0
2017-01-24T07:32:40.230Z,0
2017-01-24T07:33:51.035Z,0
2017-01-24T07:35:01.843Z,0
2017-01-24T07:36:12.655Z,0
2017-01-24T07:37:23.463Z,0
2017-01-24T07:38:34.267Z,0
2017-01-24T07:39:45.374Z,0
2017-01-24T07:40:56.176Z,0
2017-01-24T07:42:06.985Z,0
2017-01-24T07:43:17.795Z,0
2017-01-24T07:44:28.598Z,0
2017-01-24T07:45:39.659Z,0
2017-01-24T07:46:50.495Z,0
2017-01-24T07:48:01.301Z,0
2017-01-24T07:49:12.106Z,0
2017-01-24T07:50:22.913Z,0
2017-01-24T07:51:33.723Z,0
2017-01-24T07:52:44.556Z,0
2017-01-24T07:53:55.364Z,0
2017-01-24T07:55:06.168Z,0
2017-01-24T07:56:16.977Z,0
2017-01-24T07:57:27.782Z,0
2017-01-24T07:58:38.587Z,0
2017-01-24T07:59:49.393Z,0
2017-01-24T08:01:00.202Z,0
2017-01-24T08:02:11.011Z,0
2017-01-24T08:03:22.066Z,0
2017-01-24T08:04:32.873Z,0
2017-01-24T08:05:43.677Z,0
2017-01-24T08:06:54.485Z,0
2017-01-24T08:08:05.292Z,0
2017-01-24T08:09:16.455Z,0
2017-01-24T08:10:27.264Z,0
2017-01-24T08:11:38.071Z,0
2017-01-24T08:12:48.875Z,0
2017-01-24T08:13:59.681Z,0
2017-01-24T08:15:10.739Z,0
2017-01-24T08:16:21.551Z,0
2017-01-24T08:17:32.355Z,0
2017-01-24T08:18:43.167Z,0
2017-01-24T08:19:53.974Z,0
2017-01-24T08:21:05.132Z,0
2017-01-24T08:22:15.963Z,0
2017-01-24T08:23:26.773Z,0
2017-01-24T08:24:37.579Z,0
2017-01-24T08:25:48.386Z,0
2017-01-24T08:26:59.192Z,0
2017-01-24T08:28:10.026Z,0
2017-01-24T08:29:20.830Z,0
2017-01-24T08:30:31.635Z,0
2017-01-24T08:31:42.438Z,0
2017-01-24T08:32:53.500Z,0
2017-01-24T08:34:04.305Z,0
2017-01-24T08:35:15.115Z,0
2017-01-24T08:36:25.926Z,0
2017-01-24T08:37:36.731Z,0
2017-01-24T08:38:47.537Z,0
2017-01-24T08:39:58.343Z,0
2017-01-24T08:41:09.150Z,0
2017-01-24T08:42:19.961Z,0
2017-01-24T08:43:30.765Z,0
2017-01-24T08:44:41.937Z,0
2017-01-24T08:45:52.742Z,0
2017-01-24T08:47:03.545Z,0
2017-01-24T08:48:14.352Z,0
2017-01-24T08:49:25.160Z,0
2017-01-24T08:50:36.216Z,0
2017-01-24T08:52:01.494Z,0
2017-01-24T08:53:12.300Z,0
2017-01-24T08:54:23.104Z,0
2017-01-24T08:55:33.909Z,0
2017-01-24T08:56:44.718Z,0
2017-01-24T08:57:55.525Z,0
2017-01-24T08:59:06.337Z,0
2017-01-24T09:00:17.152Z,0
2017-01-24T09:01:28.207Z,0
2017-01-24T09:02:39.022Z,0
2017-01-24T09:03:49.829Z,0
2017-01-24T09:05:00.633Z,0
2017-01-24T09:06:11.439Z,0
2017-01-24T09:07:22.247Z,0
2017-01-24T09:08:33.055Z,0
2017-01-24T09:09:43.865Z,0
2017-01-24T09:10:54.671Z,5
2017-01-24T09:12:05.481Z,5
2017-01-24T09:13:16.487Z,5
2017-01-24T09:14:27.309Z,5
2017-01-24T09:15:38.115Z,5
2017-01-24T09:16:48.923Z,5
2017-01-24T09:17:59.744Z,5
2017-01-24T09:19:10.800Z,5
2017-01-24T09:20:21.604Z,5
2017-01-24T09:21:32.412Z,10
2017-01-24T09:22:43.217Z,10
2017-01-24T09:23:54.025Z,10
2017-01-24T09:25:05.087Z,10
2017-01-24T09:26:15.898Z,10
2017-01-24T09:27:26.709Z,10
2017-01-24T09:28:37.517Z,10
2017-01-24T09:29:48.324Z,10
2017-01-24T09:30:59.482Z,10
2017-01-24T09:32:10.292Z,5
2017-01-24T09:33:35.569Z,5
2017-01-24T09:34:46.387Z,10
2017-01-24T09:35:57.195Z,10
2017-01-24T09:37:07.999Z,10
2017-01-24T09:38:18.812Z,10
2017-01-24T09:39:29.616Z,10
2017-01-24T09:40:40.424Z,10
2017-01-24T09:41:51.232Z,10
2017-01-24T09:43:16.511Z,10
2017-01-24T09:44:27.924Z,10
2017-01-24T09:45:38.741Z,10
2017-01-24T09:46:49.900Z,10
2017-01-24T09:48:00.706Z,10
2017-01-24T09:49:11.514Z,10
2017-01-24T09:50:22.318Z,10
2017-01-24T09:51:33.125Z,10
2017-01-24T09:52:44.181Z,5
2017-01-24T09:53:54.989Z,5
2017-01-24T09:55:05.801Z,5
2017-01-24T09:56:16.610Z,5
2017-01-24T09:57:27.406Z,5
2017-01-24T09:58:38.558Z,10
2017-01-24T09:59:49.357Z,5
2017-01-24T10:01:00.153Z,5
2017-01-24T10:02:10.960Z,5
2017-01-24T10:03:21.767Z,5
2017-01-24T10:04:32.922Z,10
2017-01-24T10:05:43.727Z,5
2017-01-24T10:06:54.530Z,10
2017-01-24T10:08:05.333Z,10
2017-01-24T10:09:16.137Z,10
2017-01-24T10:10:27.288Z,10
2017-01-24T10:11:38.095Z,10
2017-01-24T10:12:48.897Z,10
2017-01-24T10:13:59.704Z,10
2017-01-24T10:15:10.509Z,10
2017-01-24T10:16:21.295Z,10
2017-01-24T10:17:32.693Z,10
2017-01-24T10:18:43.487Z,10
2017-01-24T10:19:54.287Z,15
2017-01-24T10:21:05.085Z,15
2017-01-24T10:22:16.078Z,15
2017-01-24T10:23:26.865Z,20
2017-01-24T10:24:37.656Z,15
2017-01-24T10:25:48.459Z,20
2017-01-24T10:28:24.530Z,15
2017-01-24T10:29:35.330Z,15
2017-01-24T10:30:46.130Z,10
2017-01-24T10:31:56.926Z,10
2017-01-24T10:33:07.724Z,10
2017-01-24T10:34:18.871Z,10
2017-01-24T10:35:29.669Z,10
2017-01-24T10:36:40.592Z,10
2017-01-24T10:38:05.902Z,10
2017-01-24T10:39:16.964Z,10
2017-01-24T10:40:27.753Z,10
2017-01-24T10:41:38.535Z,10
2017-01-24T10:42:49.319Z,10
2017-01-24T10:44:00.106Z,10
2017-01-24T10:45:10.893Z,10
2017-01-24T10:46:21.680Z,10
2017-01-24T10:47:32.469Z,10
2017-01-24T10:48:43.281Z,10
2017-01-24T10:49:54.073Z,10
2017-01-24T10:51:05.823Z,10
2017-01-24T10:52:16.612Z,10
2017-01-24T10:53:27.405Z,10
2017-01-24T10:54:52.664Z,10
2017-01-24T10:56:03.700Z,15
2017-01-24T10:57:14.486Z,15
2017-01-24T10:58:25.282Z,15
2017-01-24T10:59:36.076Z,15
2017-01-24T11:00:46.894Z,15
2017-01-24T11:01:57.985Z,15
2017-01-24T11:03:08.869Z,15
2017-01-24T11:04:19.858Z,15
2017-01-24T11:05:30.850Z,15
2017-01-24T11:06:41.850Z,15
2017-01-24T11:07:52.789Z,15
2017-01-24T11:09:03.849Z,15
2017-01-24T11:10:14.669Z,15
2017-01-24T11:11:39.933Z,15
2017-01-24T11:12:50.724Z,15
2017-01-24T11:14:01.514Z,15
2017-01-24T11:15:12.334Z,15
2017-01-24T11:16:23.119Z,15
2017-01-24T11:17:33.910Z,15
2017-01-24T11:18:44.698Z,15
2017-01-24T11:19:55.489Z,15
2017-01-24T11:21:06.275Z,15
2017-01-24T11:22:17.066Z,15
2017-01-24T11:23:27.852Z,15
2017-01-24T11:24:38.634Z,15
2017-01-24T11:25:49.425Z,15
2017-01-24T11:27:00.222Z,20
2017-01-24T11:28:11.012Z,20
2017-01-24T11:29:21.800Z,20
2017-01-24T11:30:32.612Z,20
2017-01-24T11:31:43.399Z,20
2017-01-24T11:32:54.187Z,20
2017-01-24T11:34:05.592Z,20
2017-01-24T11:35:16.388Z,20
2017-01-24T11:36:27.375Z,20
2017-01-24T11:39:04.036Z,20
2017-01-24T11:40:14.839Z,20
2017-01-24T11:41:25.928Z,20
2017-01-24T11:42:51.190Z,20
2017-01-24T11:44:01.977Z,20
2017-01-24T11:45:12.768Z,20
2017-01-24T11:46:23.561Z,20
2017-01-24T11:47:34.353Z,20
2017-01-24T11:48:45.144Z,20
2017-01-24T11:49:55.963Z,20
2017-01-24T11:51:06.761Z,20
2017-01-24T11:52:17.554Z,20
2017-01-24T11:53:28.340Z,20
2017-01-24T11:54:39.145Z,20
2017-01-24T11:56:04.415Z,20
2017-01-24T11:57:15.207Z,20
2017-01-24T11:58:25.995Z,20
2017-01-24T11:59:51.266Z,20
2017-01-24T12:01:02.068Z,25
2017-01-24T12:02:27.344Z,25
2017-01-24T12:05:17.965Z,25
2017-01-24T12:06:28.873Z,30
2017-01-24T12:07:39.688Z,30
2017-01-24T12:08:50.694Z,30
2017-01-24T12:10:01.681Z,30
2017-01-24T12:11:12.717Z,35
2017-01-24T12:12:24.354Z,35
2017-01-24T12:13:35.278Z,35
2017-01-24T12:14:46.235Z,35
2017-01-24T12:15:57.063Z,35
2017-01-24T12:17:07.870Z,40
2017-01-24T12:18:18.669Z,40
2017-01-24T12:19:30.144Z,45
2017-01-24T12:20:41.567Z,45
2017-01-24T12:21:52.370Z,45
2017-01-24T12:23:03.175Z,45
2017-01-24T12:24:13.991Z,15
2017-01-24T12:25:24.783Z,50
2017-01-24T12:26:35.584Z,60
2017-01-24T12:27:46.981Z,20
2017-01-24T12:28:57.832Z,55
2017-01-24T12:30:08.627Z,60
2017-01-24T12:31:19.723Z,40
2017-01-24T12:33:55.786Z,60
2017-01-24T12:35:06.576Z,35
2017-01-24T12:36:17.363Z,35
2017-01-24T12:37:28.182Z,40
2017-01-24T12:38:39.580Z,50
2017-01-24T12:39:50.370Z,75
2017-01-24T12:41:01.156Z,75
2017-01-24T12:42:11.947Z,80
2017-01-24T12:43:22.740Z,80
2017-01-24T12:44:48.036Z,50
2017-01-24T12:45:58.824Z,65
2017-01-24T12:47:09.814Z,50
2017-01-24T12:48:35.093Z,35
2017-01-24T12:49:45.885Z,25
2017-01-24T12:50:56.676Z,85
2017-01-24T12:52:07.720Z,40
2017-01-24T12:53:18.516Z,35
2017-01-24T12:54:29.317Z,85
2017-01-24T12:55:40.125Z,85
2017-01-24T12:57:05.404Z,85
2017-01-24T12:58:16.409Z,95
2017-01-24T12:59:27.208Z,55
2017-01-24T13:00:38.021Z,105
2017-01-24T13:01:48.819Z,95
2017-01-24T13:02:59.625Z,95
2017-01-24T13:04:25.712Z,40
2017-01-24T13:05:36.522Z,25
2017-01-24T13:06:47.335Z,25
2017-01-24T13:08:13.553Z,65
2017-01-24T13:09:40.260Z,25
2017-01-24T13:10:52.670Z,20
2017-01-24T13:12:18.987Z,15
2017-01-24T13:13:44.497Z,15
2017-01-24T13:14:55.543Z,15
2017-01-24T13:16:06.335Z,15
2017-01-24T13:17:17.139Z,15
2017-01-24T13:18:27.930Z,15
2017-01-24T13:19:38.736Z,15
2017-01-24T13:20:49.532Z,20
2017-01-24T13:22:14.800Z,80
2017-01-24T13:23:25.592Z,25
2017-01-24T13:24:36.387Z,25
2017-01-24T13:25:47.177Z,20
2017-01-24T13:26:57.971Z,20
2017-01-24T13:28:08.779Z,25
2017-01-24T13:29:19.583Z,50
2017-01-24T13:30:30.374Z,15
2017-01-24T13:31:41.176Z,15
2017-01-24T13:32:51.973Z,15
2017-01-24T13:34:06.600Z,15
2017-01-24T13:35:17.421Z,15
2017-01-24T13:36:28.210Z,85
2017-01-24T13:37:40.293Z,85
2017-01-24T13:38:52.544Z,25
2017-01-24T13:40:04.519Z,30
2017-01-24T13:41:44.267Z,30
2017-01-24T13:42:55.065Z,80
2017-01-24T13:44:05.858Z,35
2017-01-24T13:46:57.757Z,30
2017-01-24T13:48:08.550Z,45
2017-01-24T13:49:33.833Z,95
2017-01-24T13:50:44.621Z,95
2017-01-24T13:51:56.019Z,90
2017-01-24T13:53:06.815Z,90
2017-01-24T13:54:17.739Z,90
2017-01-24T13:55:28.529Z,85
2017-01-24T13:56:39.323Z,85
2017-01-24T13:57:50.128Z,85
2017-01-24T13:59:01.750Z,90
2017-01-24T14:00:12.548Z,85
2017-01-24T14:01:23.347Z,85
2017-01-24T14:02:34.154Z,85
2017-01-24T14:03:44.972Z,100
2017-01-24T14:04:55.829Z,90
2017-01-24T14:06:06.810Z,100
2017-01-24T14:07:17.613Z,100
2017-01-24T14:08:28.504Z,100
2017-01-24T14:09:39.385Z,100
2017-01-24T14:10:50.380Z,105
2017-01-24T14:12:01.178Z,110
2017-01-24T14:13:11.971Z,105
2017-01-24T14:14:37.252Z,35
2017-01-24T14:15:48.261Z,35
2017-01-24T14:16:59.088Z,110
2017-01-24T14:18:10.518Z,40
2017-01-24T14:19:21.359Z,30
2017-01-24T14:20:32.603Z,35
2017-01-24T14:21:58.674Z,25
2017-01-24T14:23:09.501Z,30
2017-01-24T14:24:20.316Z,45
2017-01-24T14:25:31.137Z,105
2017-01-24T14:26:42.159Z,80
2017-01-24T14:27:54.802Z,45
2017-01-24T14:29:05.618Z,40
2017-01-24T14:30:16.622Z,30
2017-01-24T14:31:27.427Z,25
2017-01-24T14:32:38.222Z,25
2017-01-24T14:33:49.013Z,25
2017-01-24T14:34:59.816Z,25
2017-01-24T14:36:10.843Z,65
2017-01-24T14:37:21.639Z,75
2017-01-24T14:38:32.684Z,100
2017-01-24T14:39:43.481Z,105
2017-01-24T14:41:08.753Z,105
2017-01-24T14:42:19.547Z,105
2017-01-24T14:43:30.344Z,105
2017-01-24T14:44:41.145Z,105
2017-01-24T14:46:06.438Z,110
2017-01-24T14:47:17.234Z,110
2017-01-24T14:48:28.026Z,105
2017-01-24T14:49:38.821Z,100
2017-01-24T14:50:49.618Z,95
2017-01-24T14:52:00.416Z,95
2017-01-24T14:53:11.854Z,90
2017-01-24T14:54:23.003Z,50
2017-01-24T14:55:33.804Z,40
2017-01-24T14:56:44.599Z,75
2017-01-24T14:57:55.392Z,45
2017-01-24T14:59:06.187Z,45
2017-01-24T15:00:17.181Z,40
2017-01-24T15:01:27.979Z,40
2017-01-24T15:02:38.773Z,30
2017-01-24T15:03:49.563Z,30
2017-01-24T15:05:00.358Z,35
2017-01-24T15:06:11.509Z,45
2017-01-24T15:07:22.307Z,45
2017-01-24T15:08:33.145Z,95
2017-01-24T15:09:58.426Z,50
2017-01-24T15:11:09.236Z,105
2017-01-24T15:12:20.045Z,100
2017-01-24T15:13:30.909Z,95
2017-01-24T15:14:41.717Z,100
2017-01-24T15:15:52.530Z,95
2017-01-24T15:17:03.344Z,100
2017-01-24T15:18:14.169Z,100
2017-01-24T15:19:25.019Z,50
2017-01-24T15:20:35.867Z,95
2017-01-24T15:21:46.688Z,40
2017-01-24T15:22:57.530Z,35
2017-01-24T15:24:08.355Z,40
2017-01-24T15:25:19.184Z,40
2017-01-24T15:26:30.010Z,30
2017-01-24T15:27:40.839Z,80
2017-01-24T15:28:51.688Z,85
2017-01-24T15:30:03.131Z,80
2017-01-24T15:31:28.441Z,75
2017-01-24T15:32:53.737Z,70
2017-01-24T15:34:04.764Z,70
2017-01-24T15:35:15.597Z,70
2017-01-24T15:36:26.427Z,70
2017-01-24T15:37:37.275Z,70
2017-01-24T15:38:48.078Z,70
2017-01-24T15:39:58.873Z,70
2017-01-24T15:41:09.673Z,70
2017-01-24T15:42:20.477Z,70
2017-01-24T15:43:31.291Z,70
2017-01-24T15:44:42.100Z,70
2017-01-24T15:46:07.634Z,65
2017-01-24T15:47:32.925Z,30
2017-01-24T15:48:43.735Z,25
2017-01-24T15:49:54.529Z,70
2017-01-24T15:51:05.342Z,70
2017-01-24T15:52:16.140Z,70
2017-01-24T15:53:26.929Z,60
2017-01-24T15:54:37.725Z,65
2017-01-24T15:55:48.519Z,85
2017-01-24T15:56:59.674Z,40
2017-01-24T15:58:11.075Z,40
2017-01-24T15:59:21.867Z,75
2017-01-24T16:00:32.659Z,40
2017-01-24T16:01:43.449Z,70
2017-01-24T16:02:55.056Z,35
2017-01-24T16:04:05.862Z,30
2017-01-24T16:05:16.667Z,65
2017-01-24T16:06:27.471Z,65
2017-01-24T16:07:38.264Z,60
2017-01-24T16:08:49.305Z,60
2017-01-24T16:10:15.183Z,60
2017-01-24T16:11:25.974Z,60
2017-01-24T16:12:51.854Z,60
2017-01-24T16:14:17.477Z,65
2017-01-24T16:15:28.266Z,40
2017-01-24T16:16:39.057Z,30
2017-01-24T16:17:49.872Z,30
2017-01-24T16:19:00.672Z,40
2017-01-24T16:20:11.477Z,60
2017-01-24T16:21:22.283Z,70
2017-01-24T16:22:33.110Z,65
2017-01-24T16:23:43.917Z,70
2017-01-24T16:24:54.720Z,70
2017-01-24T16:26:05.520Z,65
2017-01-24T16:27:16.937Z,65
2017-01-24T16:28:27.729Z,60
2017-01-24T16:29:53.011Z,60
2017-01-24T16:31:03.822Z,55
2017-01-24T16:32:29.092Z,55
2017-01-24T16:33:54.360Z,45
2017-01-24T16:35:05.404Z,35
2017-01-24T16:36:16.199Z,35
2017-01-24T16:37:41.467Z,40
2017-01-24T16:38:52.265Z,40
2017-01-24T16:40:03.325Z,55
2017-01-24T16:41:14.128Z,65
2017-01-24T16:42:24.974Z,40
2017-01-24T16:43:35.771Z,45
2017-01-24T16:44:46.570Z,60
2017-01-24T16:45:57.641Z,55
2017-01-24T16:47:08.436Z,45
2017-01-24T16:48:19.232Z,40
2017-01-24T16:49:30.051Z,45
2017-01-24T16:50:40.846Z,45
2017-01-24T16:51:51.890Z,45
2017-01-24T16:53:02.690Z,40
2017-01-24T16:54:13.490Z,35
2017-01-24T16:55:24.285Z,30
2017-01-24T16:56:35.081Z,25
2017-01-24T16:57:45.903Z,25
2017-01-24T16:58:56.740Z,20
2017-01-24T17:00:07.546Z,20
2017-01-24T17:01:18.348Z,25
2017-01-24T17:02:29.142Z,25
2017-01-24T17:03:39.934Z,25
2017-01-24T17:05:05.209Z,30
2017-01-24T17:06:15.997Z,30
2017-01-24T17:07:26.788Z,35
2017-01-24T17:08:37.929Z,35
2017-01-24T17:09:48.717Z,40
2017-01-24T17:10:59.515Z,40
2017-01-24T17:12:10.300Z,40
2017-01-24T17:13:21.084Z,50
2017-01-24T17:14:31.874Z,45
2017-01-24T17:15:42.659Z,40
2017-01-24T17:18:18.713Z,40
2017-01-24T17:19:29.505Z,50
2017-01-24T17:20:40.295Z,50
2017-01-24T17:21:51.081Z,50
2017-01-24T17:23:01.872Z,50
2017-01-24T17:24:13.270Z,45
2017-01-24T17:25:38.893Z,45
2017-01-24T17:26:49.683Z,45
2017-01-24T17:28:00.474Z,45
2017-01-24T17:29:25.740Z,40
2017-01-24T17:30:36.530Z,40
2017-01-24T17:31:47.335Z,40
2017-01-24T17:32:58.123Z,40
2017-01-24T17:34:08.917Z,25
2017-01-24T17:35:19.704Z,25
2017-01-24T17:36:30.847Z,25
2017-01-24T17:37:42.241Z,25
2017-01-24T17:38:53.032Z,40